Time,TemperatureF,DewpointF,PressureIn,WindDirection,WindDirectionDegrees,WindSpeedMPH,WindSpeedGustMPH,Humidity,HourlyPrecipIn,Conditions,Clouds,dailyrainin,SoftwareType,DateUTC
2016-07-27 00:02:00,61.6,44.3,30.03,NW,311,1.0,1.0,53,0.00,,,0.00,WeatherCatV2.02B30,2016-07-26 14:02:00,
2016-07-27 00:07:00,61.3,44.0,30.02,WNW,290,2.0,2.0,53,0.00,,,0.00,WeatherCatV2.02B30,2016-07-26 14:07:00,
2016-07-27 00:12:00,61.6,44.3,30.02,West,278,0.0,0.0,53,0.00,,,0.00,WeatherCatV2.02B30,2016-07-26 14:12:00,
2016-07-27 00:17:00,61.4,43.6,30.02,WNW,303,0.0,1.0,52,0.00,,,0.00,WeatherCatV2.02B30,2016-07-26 14:17:00,
2016-07-27 00:22:00,61.4,43.6,30.02,WNW,302,0.0,1.0,52,0.00,,,0.00,WeatherCatV2.02B30,2016-07-26 14:22:00,
2016-07-27 00:27:00,61.3,44.0,30.02,NW,312,0.0,1.0,53,0.00,,,0.00,WeatherCatV2.02B30,2016-07-26 14:27:00,
2016-07-27 00:32:00,61.2,43.9,30.02,NW,308,0.0,1.0,53,0.00,,,0.00,WeatherCatV2.02B30,2016-07-26 14:32:00,
2016-07-27 00:37:00,61.0,44.2,30.02,North,351,0.0,1.0,54,0.00,,,0.00,WeatherCatV2.02B30,2016-07-26 14:37:00,
2016-07-27 00:42:00,60.8,44.0,30.03,WNW,290,2.0,2.0,54,0.00,,,0.00,WeatherCatV2.02B30,2016-07-26 14:42:00,
2016-07-27 00:47:00,60.6,44.3,30.03,WNW,287,2.0,2.0,55,0.00,,,0.00,WeatherCatV2.02B30,2016-07-26 14:47:00,
2016-07-27 00:52:00,61.1,42.8,30.03,WNW,288,2.0,3.0,51,0.00,,,0.00,WeatherCatV2.02B30,2016-07-26 14:52:00,
2016-07-27 00:57:00,61.8,41.9,30.03,West,277,3.0,8.0,48,0.00,,,0.00,WeatherCatV2.02B30,2016-07-26 14:57:00,
2016-07-27 01:02:00,62.4,41.3,30.02,West,273,8.0,12.0,46,0.00,,,0.00,WeatherCatV2.02B30,2016-07-26 15:02:00,
2016-07-27 01:07:00,62.6,41.0,30.02,WNW,287,6.0,8.0,45,0.00,,,0.00,WeatherCatV2.02B30,2016-07-26 15:07:00,
2016-07-27 01:12:00,62.5,40.9,30.02,WNW,296,5.0,5.0,45,0.00,,,0.00,WeatherCatV2.02B30,2016-07-26 15:12:00,
2016-07-27 01:17:00,62.5,40.9,30.02,NW,317,3.0,8.0,45,0.00,,,0.00,WeatherCatV2.02B30,2016-07-26 15:17:00,
2016-07-27 01:22:00,62.5,40.9,30.02,NW,304,5.0,10.0,45,0.00,,,0.00,WeatherCatV2.02B30,2016-07-26 15:22:00,
2016-07-27 01:27:00,62.6,41.0,30.02,WNW,284,3.0,12.0,45,0.00,,,0.00,WeatherCatV2.02B30,2016-07-26 15:27:00,
2016-07-27 01:32:00,62.5,40.9,30.02,WSW,258,7.0,7.0,45,0.00,,,0.00,WeatherCatV2.02B30,2016-07-26 15:32:00,
2016-07-27 01:37:00,62.5,40.9,30.02,WNW,284,3.0,8.0,45,0.00,,,0.00,WeatherCatV2.02B30,2016-07-26 15:37:00,
2016-07-27 01:42:00,62.3,41.2,30.02,WNW,291,3.0,4.0,46,0.00,,,0.00,WeatherCatV2.02B30,2016-07-26 15:42:00,
2016-07-27 01:47:00,62.2,41.2,30.03,WNW,296,2.0,4.0,46,0.00,,,0.00,WeatherCatV2.02B30,2016-07-26 15:47:00,
2016-07-27 01:52:00,62.0,41.5,30.02,WNW,298,3.0,4.0,47,0.00,,,0.00,WeatherCatV2.02B30,2016-07-26 15:52:00,
2016-07-27 01:57:00,62.0,41.0,30.02,WNW,292,2.0,4.0,46,0.00,,,0.00,WeatherCatV2.02B30,2016-07-26 15:57:00,
2016-07-27 02:02:00,61.8,41.9,30.02,NW,311,2.0,7.0,48,0.00,,,0.00,WeatherCatV2.02B30,2016-07-26 16:02:00,
2016-07-27 02:07:00,61.6,42.2,30.02,WNW,294,0.0,3.0,49,0.00,,,0.00,WeatherCatV2.02B30,2016-07-26 16:07:00,
2016-07-27 02:12:00,61.4,41.5,30.02,NW,308,1.0,4.0,48,0.00,,,0.00,WeatherCatV2.02B30,2016-07-26 16:12:00,
2016-07-27 02:17:00,61.4,42.1,30.02,WNW,295,1.0,5.0,49,0.00,,,0.00,WeatherCatV2.02B30,2016-07-26 16:17:00,
2016-07-27 02:22:00,61.4,42.1,30.02,NW,315,2.0,5.0,49,0.00,,,0.00,WeatherCatV2.02B30,2016-07-26 16:22:00,
2016-07-27 02:27:00,61.4,42.1,30.02,West,273,4.0,6.0,49,0.00,,,0.00,WeatherCatV2.02B30,2016-07-26 16:27:00,
2016-07-27 02:32:00,61.3,42.0,30.03,NW,308,2.0,4.0,49,0.00,,,0.00,WeatherCatV2.02B30,2016-07-26 16:32:00,
2016-07-27 02:37:00,61.4,42.1,30.03,WNW,291,2.0,6.0,49,0.00,,,0.00,WeatherCatV2.02B30,2016-07-26 16:37:00,
2016-07-27 02:42:00,61.6,41.7,30.03,WNW,290,5.0,8.0,48,0.00,,,0.00,WeatherCatV2.02B30,2016-07-26 16:42:00,
2016-07-27 02:47:00,62.5,42.5,30.03,West,273,3.0,3.0,48,0.00,,,0.00,WeatherCatV2.02B30,2016-07-26 16:47:00,
2016-07-27 02:52:00,62.5,42.5,30.02,West,273,3.0,3.0,48,0.00,,,0.00,WeatherCatV2.02B30,2016-07-26 16:52:00,
2016-07-27 02:57:00,-999.9,-99.9,30.02,North,-9999,-999.9,0.0,-999,0.00,,,0.00,WeatherCatV2.02B30,2016-07-26 16:57:00,
2016-07-27 03:02:00,-999.9,-99.9,30.01,North,-9999,-999.9,0.0,-999,0.00,,,0.00,WeatherCatV2.02B30,2016-07-26 17:02:00,
2016-07-27 03:07:00,-999.9,-99.9,30.02,North,-9999,-999.9,0.0,-999,0.00,,,0.00,WeatherCatV2.02B30,2016-07-26 17:07:00,
2016-07-27 03:12:00,-999.9,-99.9,30.02,North,-9999,-999.9,0.0,-999,0.00,,,0.00,WeatherCatV2.02B30,2016-07-26 17:12:00,
2016-07-27 03:17:00,-999.9,-99.9,30.02,North,-9999,-999.9,0.0,-999,0.00,,,0.00,WeatherCatV2.02B30,2016-07-26 17:17:00,
2016-07-27 03:22:00,-999.9,-99.9,30.02,North,-9999,-999.9,0.0,-999,0.00,,,0.00,WeatherCatV2.02B30,2016-07-26 17:22:00,
2016-07-27 03:27:00,-999.9,-99.9,30.02,North,-9999,-999.9,0.0,-999,0.00,,,0.00,WeatherCatV2.02B30,2016-07-26 17:27:00,
2016-07-27 03:32:00,-999.9,-99.9,30.02,North,-9999,-999.9,0.0,-999,0.00,,,0.00,WeatherCatV2.02B30,2016-07-26 17:32:00,
2016-07-27 03:37:00,-999.9,-99.9,30.03,North,-9999,-999.9,0.0,-999,0.00,,,0.00,WeatherCatV2.02B30,2016-07-26 17:37:00,
2016-07-27 03:42:00,-999.9,-99.9,30.02,North,-9999,-999.9,0.0,-999,0.00,,,0.00,WeatherCatV2.02B30,2016-07-26 17:42:00,
2016-07-27 03:47:00,-999.9,-99.9,30.02,North,-9999,-999.9,0.0,-999,0.00,,,0.00,WeatherCatV2.02B30,2016-07-26 17:47:00,
2016-07-27 03:52:00,-999.9,-99.9,30.02,North,-9999,-999.9,0.0,-999,0.00,,,0.00,WeatherCatV2.02B30,2016-07-26 17:52:00,
2016-07-27 03:57:00,-999.9,-99.9,30.02,North,-9999,-999.9,0.0,-999,0.00,,,0.00,WeatherCatV2.02B30,2016-07-26 17:57:00,
2016-07-27 04:02:00,-999.9,-99.9,30.02,North,-9999,-999.9,0.0,-999,0.00,,,0.00,WeatherCatV2.02B30,2016-07-26 18:02:00,
2016-07-27 04:07:00,-999.9,-99.9,30.02,North,-9999,-999.9,0.0,-999,0.00,,,0.00,WeatherCatV2.02B30,2016-07-26 18:07:00,
2016-07-27 04:12:00,-999.9,-99.9,30.02,North,-9999,-999.9,0.0,-999,0.00,,,0.00,WeatherCatV2.02B30,2016-07-26 18:12:00,
2016-07-27 04:17:00,-999.9,-99.9,30.02,North,-9999,-999.9,0.0,-999,0.00,,,0.00,WeatherCatV2.02B30,2016-07-26 18:17:00,
2016-07-27 04:22:00,-999.9,-99.9,30.02,North,-9999,-999.9,0.0,-999,0.00,,,0.00,WeatherCatV2.02B30,2016-07-26 18:22:00,
2016-07-27 04:27:00,-999.9,-99.9,30.03,North,-9999,-999.9,0.0,-999,0.00,,,0.00,WeatherCatV2.02B30,2016-07-26 18:27:00,
2016-07-27 04:32:00,-999.9,-99.9,30.03,North,-9999,-999.9,0.0,-999,0.00,,,0.00,WeatherCatV2.02B30,2016-07-26 18:32:00,
2016-07-27 04:37:00,-999.9,-99.9,30.03,North,-9999,-999.9,0.0,-999,0.00,,,0.00,WeatherCatV2.02B30,2016-07-26 18:37:00,
2016-07-27 04:42:00,-999.9,-99.9,30.02,North,-9999,-999.9,0.0,-999,0.00,,,0.00,WeatherCatV2.02B30,2016-07-26 18:42:00,
2016-07-27 04:47:00,-999.9,-99.9,30.03,North,-9999,-999.9,0.0,-999,0.00,,,0.00,WeatherCatV2.02B30,2016-07-26 18:47:00,
2016-07-27 04:52:00,-999.9,-99.9,30.03,North,-9999,-999.9,0.0,-999,0.00,,,0.00,WeatherCatV2.02B30,2016-07-26 18:52:00,
2016-07-27 04:57:00,-999.9,-99.9,30.03,North,-9999,-999.9,0.0,-999,0.00,,,0.00,WeatherCatV2.02B30,2016-07-26 18:57:00,
2016-07-27 05:02:00,-999.9,-99.9,30.03,North,-9999,-999.9,0.0,-999,0.00,,,0.00,WeatherCatV2.02B30,2016-07-26 19:02:00,
2016-07-27 05:07:00,-999.9,-99.9,30.03,North,-9999,-999.9,0.0,-999,0.00,,,0.00,WeatherCatV2.02B30,2016-07-26 19:07:00,
2016-07-27 05:12:00,-999.9,-99.9,30.03,North,-9999,-999.9,0.0,-999,0.00,,,0.00,WeatherCatV2.02B30,2016-07-26 19:12:00,
2016-07-27 05:17:00,-999.9,-99.9,30.03,North,-9999,-999.9,0.0,-999,0.00,,,0.00,WeatherCatV2.02B30,2016-07-26 19:17:00,
2016-07-27 05:22:00,-999.9,-99.9,30.03,North,-9999,-999.9,0.0,-999,0.00,,,0.00,WeatherCatV2.02B30,2016-07-26 19:22:00,
2016-07-27 05:27:00,-999.9,-99.9,30.04,North,-9999,-999.9,0.0,-999,0.00,,,0.00,WeatherCatV2.02B30,2016-07-26 19:27:00,
2016-07-27 05:32:00,-999.9,-99.9,30.03,North,-9999,-999.9,0.0,-999,0.00,,,0.00,WeatherCatV2.02B30,2016-07-26 19:32:00,
2016-07-27 05:37:00,-999.9,-99.9,30.03,North,-9999,-999.9,0.0,-999,0.00,,,0.00,WeatherCatV2.02B30,2016-07-26 19:37:00,
2016-07-27 05:42:00,-999.9,-99.9,30.03,North,-9999,-999.9,0.0,-999,0.00,,,0.00,WeatherCatV2.02B30,2016-07-26 19:42:00,
2016-07-27 05:46:00,-999.9,-99.9,30.04,North,-9999,-999.9,0.0,-999,0.00,,,0.00,WeatherCatV2.02B30,2016-07-26 19:46:00,
2016-07-27 05:51:00,-999.9,-99.9,30.05,North,-9999,-999.9,0.0,-999,0.00,,,0.00,WeatherCatV2.02B30,2016-07-26 19:51:00,
2016-07-27 05:57:00,-999.9,-99.9,30.05,North,-9999,-999.9,0.0,-999,0.00,,,0.00,WeatherCatV2.02B30,2016-07-26 19:57:00,
2016-07-27 06:02:00,-999.9,-99.9,30.05,North,-9999,-999.9,0.0,-999,0.00,,,0.00,WeatherCatV2.02B30,2016-07-26 20:02:00,
2016-07-27 06:07:00,-999.9,-99.9,30.05,North,-9999,-999.9,0.0,-999,0.00,,,0.00,WeatherCatV2.02B30,2016-07-26 20:07:00,
2016-07-27 06:12:00,-999.9,-99.9,30.05,North,-9999,-999.9,0.0,-999,0.00,,,0.00,WeatherCatV2.02B30,2016-07-26 20:12:00,
2016-07-27 06:17:00,-999.9,-99.9,30.05,North,-9999,-999.9,0.0,-999,0.00,,,0.00,WeatherCatV2.02B30,2016-07-26 20:17:00,
2016-07-27 06:21:00,-999.9,-99.9,30.06,North,-9999,-999.9,0.0,-999,0.00,,,0.00,WeatherCatV2.02B30,2016-07-26 20:21:00,
2016-07-27 06:27:00,-999.9,-99.9,30.06,North,-9999,-999.9,0.0,-999,0.00,,,0.00,WeatherCatV2.02B30,2016-07-26 20:27:00,
2016-07-27 06:32:00,-999.9,-99.9,30.06,North,-9999,-999.9,0.0,-999,0.00,,,0.00,WeatherCatV2.02B30,2016-07-26 20:32:00,
2016-07-27 06:36:00,-999.9,-99.9,30.06,North,-9999,-999.9,0.0,-999,0.00,,,0.00,WeatherCatV2.02B30,2016-07-26 20:36:00,
2016-07-27 06:41:00,-999.9,-99.9,30.05,North,-9999,-999.9,0.0,-999,0.00,,,0.00,WeatherCatV2.02B30,2016-07-26 20:41:00,
2016-07-27 06:47:00,-999.9,-99.9,30.05,North,-9999,-999.9,0.0,-999,0.00,,,0.00,WeatherCatV2.02B30,2016-07-26 20:47:00,
2016-07-27 06:52:00,-999.9,-99.9,30.06,North,-9999,-999.9,0.0,-999,0.00,,,0.00,WeatherCatV2.02B30,2016-07-26 20:52:00,
2016-07-27 06:57:00,-999.9,-99.9,30.06,North,-9999,-999.9,0.0,-999,0.00,,,0.00,WeatherCatV2.02B30,2016-07-26 20:57:00,
2016-07-27 07:02:00,-999.9,-99.9,30.05,North,-9999,-999.9,0.0,-999,0.00,,,0.00,WeatherCatV2.02B30,2016-07-26 21:02:00,
2016-07-27 07:07:00,-999.9,-99.9,30.06,North,-9999,-999.9,0.0,-999,0.00,,,0.00,WeatherCatV2.02B30,2016-07-26 21:07:00,
2016-07-27 07:12:00,-999.9,-99.9,30.05,North,-9999,-999.9,0.0,-999,0.00,,,0.00,WeatherCatV2.02B30,2016-07-26 21:12:00,
2016-07-27 07:17:00,-999.9,-99.9,30.06,North,-9999,-999.9,0.0,-999,0.00,,,0.00,WeatherCatV2.02B30,2016-07-26 21:17:00,
2016-07-27 07:22:00,-999.9,-99.9,30.05,North,-9999,-999.9,0.0,-999,0.00,,,0.00,WeatherCatV2.02B30,2016-07-26 21:22:00,
2016-07-27 07:27:00,-999.9,-99.9,30.06,North,-9999,-999.9,0.0,-999,0.00,,,0.00,WeatherCatV2.02B30,2016-07-26 21:27:00,
2016-07-27 07:32:00,61.2,41.3,30.06,WNW,289,7.0,12.0,48,0.00,,,0.00,WeatherCatV2.02B30,2016-07-26 21:32:00,
2016-07-27 07:37:00,61.2,41.3,30.05,WNW,282,6.0,12.0,48,0.00,,,0.00,WeatherCatV2.02B30,2016-07-26 21:37:00,
2016-07-27 07:42:00,61.2,41.3,30.06,WNW,282,8.0,11.0,48,0.00,,,0.00,WeatherCatV2.02B30,2016-07-26 21:42:00,
2016-07-27 07:47:00,61.1,41.3,30.06,WNW,293,6.0,7.0,48,0.00,,,0.00,WeatherCatV2.02B30,2016-07-26 21:47:00,
2016-07-27 07:52:00,61.1,41.3,30.07,West,271,5.0,10.0,48,0.00,,,0.00,WeatherCatV2.02B30,2016-07-26 21:52:00,
2016-07-27 07:57:00,61.1,41.8,30.07,WNW,290,1.0,7.0,49,0.00,,,0.00,WeatherCatV2.02B30,2016-07-26 21:57:00,
2016-07-27 08:02:00,60.9,41.6,30.07,WNW,288,2.0,5.0,49,0.00,,,0.00,WeatherCatV2.02B30,2016-07-26 22:02:00,
2016-07-27 08:07:00,60.8,41.5,30.07,WNW,292,3.0,5.0,49,0.00,,,0.00,WeatherCatV2.02B30,2016-07-26 22:07:00,
2016-07-27 08:12:00,60.6,41.9,30.06,WNW,297,2.0,5.0,50,0.00,,,0.00,WeatherCatV2.02B30,2016-07-26 22:12:00,
2016-07-27 08:17:00,60.6,41.9,30.06,WSW,251,4.0,9.0,50,0.00,,,0.00,WeatherCatV2.02B30,2016-07-26 22:17:00,
2016-07-27 08:22:00,60.6,41.9,30.06,West,273,8.0,9.0,50,0.00,,,0.00,WeatherCatV2.02B30,2016-07-26 22:22:00,
2016-07-27 08:27:00,60.7,42.0,30.06,NW,324,5.0,10.0,50,0.00,,,0.00,WeatherCatV2.02B30,2016-07-26 22:27:00,
2016-07-27 08:32:00,60.6,41.9,30.07,SW,221,0.0,4.0,50,0.00,,,0.00,WeatherCatV2.02B30,2016-07-26 22:32:00,
2016-07-27 08:37:00,60.6,42.4,30.07,WNW,290,2.0,2.0,51,0.00,,,0.00,WeatherCatV2.02B30,2016-07-26 22:37:00,
2016-07-27 08:42:00,60.6,42.4,30.07,WNW,298,2.0,4.0,51,0.00,,,0.00,WeatherCatV2.02B30,2016-07-26 22:42:00,
2016-07-27 08:47:00,60.5,42.3,30.06,WNW,303,0.0,1.0,51,0.00,,,0.00,WeatherCatV2.02B30,2016-07-26 22:47:00,
2016-07-27 08:52:00,60.5,42.8,30.06,WNW,282,2.0,3.0,52,0.00,,,0.00,WeatherCatV2.02B30,2016-07-26 22:52:00,
2016-07-27 08:57:00,60.5,42.3,30.06,West,281,2.0,7.0,51,0.00,,,0.00,WeatherCatV2.02B30,2016-07-26 22:57:00,
2016-07-27 09:02:00,60.7,42.0,30.07,WNW,296,5.0,8.0,50,0.00,,,0.00,WeatherCatV2.02B30,2016-07-26 23:02:00,
2016-07-27 09:06:00,60.8,41.5,30.08,WNW,283,7.0,8.0,49,0.00,,,0.00,WeatherCatV2.02B30,2016-07-26 23:06:00,
2016-07-27 09:11:00,60.8,42.0,30.08,WNW,289,4.0,6.0,50,0.00,,,0.00,WeatherCatV2.02B30,2016-07-26 23:11:00,
2016-07-27 09:16:00,60.9,42.1,30.08,WSW,257,2.0,9.0,50,0.00,,,0.00,WeatherCatV2.02B30,2016-07-26 23:16:00,
2016-07-27 09:21:00,60.9,42.1,30.08,WNW,303,7.0,12.0,50,0.00,,,0.00,WeatherCatV2.02B30,2016-07-26 23:21:00,
2016-07-27 09:26:00,60.9,41.6,30.07,WNW,300,6.0,7.0,49,0.00,,,0.00,WeatherCatV2.02B30,2016-07-26 23:26:00,
2016-07-27 09:31:00,61.1,41.8,30.07,West,271,3.0,10.0,49,0.00,,,0.00,WeatherCatV2.02B30,2016-07-26 23:31:00,
2016-07-27 09:36:00,61.1,41.8,30.08,West,280,6.0,11.0,49,0.00,,,0.00,WeatherCatV2.02B30,2016-07-26 23:36:00,
2016-07-27 09:41:00,61.2,41.9,30.08,WNW,300,8.0,9.0,49,0.00,,,0.00,WeatherCatV2.02B30,2016-07-26 23:41:00,
2016-07-27 09:46:00,61.1,41.8,30.08,West,275,5.0,12.0,49,0.00,,,0.00,WeatherCatV2.02B30,2016-07-26 23:46:00,
2016-07-27 09:51:00,61.1,41.8,30.08,West,263,6.0,10.0,49,0.00,,,0.00,WeatherCatV2.02B30,2016-07-26 23:51:00,
2016-07-27 09:56:00,61.1,42.3,30.08,WNW,289,8.0,9.0,50,0.00,,,0.00,WeatherCatV2.02B30,2016-07-26 23:56:00,
2016-07-27 10:01:00,61.0,41.7,30.08,West,266,3.0,8.0,49,0.00,,,0.00,WeatherCatV2.02B30,2016-07-27 00:01:00,
2016-07-27 10:06:00,61.0,42.2,30.07,WNW,285,5.0,6.0,50,0.00,,,0.00,WeatherCatV2.02B30,2016-07-27 00:06:00,
2016-07-27 10:11:00,61.1,42.3,30.07,West,280,5.0,9.0,50,0.00,,,0.00,WeatherCatV2.02B30,2016-07-27 00:11:00,
2016-07-27 10:16:00,61.2,42.4,30.08,WNW,296,3.0,7.0,50,0.00,,,0.00,WeatherCatV2.02B30,2016-07-27 00:16:00,
2016-07-27 10:21:00,61.4,43.1,30.08,West,260,4.0,7.0,51,0.00,,,0.00,WeatherCatV2.02B30,2016-07-27 00:21:00,
2016-07-27 10:26:00,61.6,42.2,30.08,WNW,283,6.0,9.0,49,0.00,,,0.00,WeatherCatV2.02B30,2016-07-27 00:26:00,
2016-07-27 10:31:00,61.8,42.4,30.08,NW,309,4.0,9.0,49,0.00,,,0.00,WeatherCatV2.02B30,2016-07-27 00:31:00,
2016-07-27 10:36:00,61.9,42.5,30.08,WNW,288,5.0,10.0,49,0.00,,,0.00,WeatherCatV2.02B30,2016-07-27 00:36:00,
2016-07-27 10:41:00,61.9,42.5,30.08,NW,310,8.0,10.0,49,0.00,,,0.00,WeatherCatV2.02B30,2016-07-27 00:41:00,
2016-07-27 10:46:00,61.8,42.4,30.08,West,281,2.0,9.0,49,0.00,,,0.00,WeatherCatV2.02B30,2016-07-27 00:46:00,
2016-07-27 10:51:00,61.8,42.4,30.07,West,281,6.0,8.0,49,0.00,,,0.00,WeatherCatV2.02B30,2016-07-27 00:51:00,
2016-07-27 10:56:00,61.8,41.9,30.07,WNW,294,4.0,10.0,48,0.00,,,0.00,WeatherCatV2.02B30,2016-07-27 00:56:00,
2016-07-27 11:01:00,61.7,42.3,30.07,WNW,288,3.0,7.0,49,0.00,,,0.00,WeatherCatV2.02B30,2016-07-27 01:01:00,
2016-07-27 11:06:00,61.9,42.5,30.07,WNW,286,3.0,7.0,49,0.00,,,0.00,WeatherCatV2.02B30,2016-07-27 01:06:00,
2016-07-27 11:11:00,61.9,42.5,30.07,West,281,2.0,4.0,49,0.00,,,0.00,WeatherCatV2.02B30,2016-07-27 01:11:00,
2016-07-27 11:16:00,61.9,42.0,30.07,West,274,4.0,8.0,48,0.00,,,0.00,WeatherCatV2.02B30,2016-07-27 01:16:00,
2016-07-27 11:21:00,61.9,42.0,30.08,WNW,299,4.0,8.0,48,0.00,,,0.00,WeatherCatV2.02B30,2016-07-27 01:21:00,
2016-07-27 11:26:00,62.0,42.1,30.07,WNW,284,6.0,11.0,48,0.00,,,0.00,WeatherCatV2.02B30,2016-07-27 01:26:00,
2016-07-27 11:31:00,62.0,42.6,30.06,WNW,285,2.0,4.0,49,0.00,,,0.00,WeatherCatV2.02B30,2016-07-27 01:31:00,
2016-07-27 11:36:00,62.1,42.2,30.05,West,275,6.0,8.0,48,0.00,,,0.00,WeatherCatV2.02B30,2016-07-27 01:36:00,
2016-07-27 11:41:00,62.2,42.8,30.05,WNW,299,4.0,7.0,49,0.00,,,0.00,WeatherCatV2.02B30,2016-07-27 01:41:00,
2016-07-27 11:46:00,62.6,42.6,30.05,WNW,285,5.0,7.0,48,0.00,,,0.00,WeatherCatV2.02B30,2016-07-27 01:46:00,
2016-07-27 11:51:00,62.6,42.6,30.04,WNW,292,5.0,13.0,48,0.00,,,0.00,WeatherCatV2.02B30,2016-07-27 01:51:00,
2016-07-27 11:56:00,62.8,42.8,30.05,WNW,287,5.0,10.0,48,0.00,,,0.00,WeatherCatV2.02B30,2016-07-27 01:56:00,
2016-07-27 12:01:00,62.7,42.2,30.04,WNW,297,7.0,12.0,47,0.00,,,0.00,WeatherCatV2.02B30,2016-07-27 02:01:00,
2016-07-27 12:06:00,63.0,43.0,30.05,WNW,294,2.0,12.0,48,0.00,,,0.00,WeatherCatV2.02B30,2016-07-27 02:06:00,
2016-07-27 12:11:00,63.2,42.6,30.05,WNW,284,8.0,9.0,47,0.00,,,0.00,WeatherCatV2.02B30,2016-07-27 02:11:00,
2016-07-27 12:16:00,63.5,42.3,30.05,WNW,286,4.0,8.0,46,0.00,,,0.00,WeatherCatV2.02B30,2016-07-27 02:16:00,
2016-07-27 12:21:00,63.4,42.8,30.04,NW,304,2.0,9.0,47,0.00,,,0.00,WeatherCatV2.02B30,2016-07-27 02:21:00,
2016-07-27 12:26:00,63.5,42.9,30.04,West,265,2.0,5.0,47,0.00,,,0.00,WeatherCatV2.02B30,2016-07-27 02:26:00,
2016-07-27 12:31:00,63.5,42.3,30.03,West,279,8.0,11.0,46,0.00,,,0.00,WeatherCatV2.02B30,2016-07-27 02:31:00,
2016-07-27 12:36:00,64.0,42.8,30.03,West,277,6.0,8.0,46,0.00,,,0.00,WeatherCatV2.02B30,2016-07-27 02:36:00,
2016-07-27 12:41:00,64.5,42.7,30.03,WNW,287,5.0,11.0,45,0.00,,,0.00,WeatherCatV2.02B30,2016-07-27 02:41:00,
2016-07-27 12:46:00,64.6,43.3,30.03,WNW,298,4.0,5.0,46,0.00,,,0.00,WeatherCatV2.02B30,2016-07-27 02:46:00,
2016-07-27 12:56:00,64.5,42.7,30.02,WNW,287,6.0,9.0,45,0.00,,,0.00,WeatherCatV2.02B30,2016-07-27 02:56:00,
2016-07-27 13:01:00,64.3,42.5,30.02,WNW,282,4.0,9.0,45,0.00,,,0.00,WeatherCatV2.02B30,2016-07-27 03:01:00,
2016-07-27 13:06:00,64.3,41.9,30.02,WNW,290,6.0,12.0,44,0.00,,,0.00,WeatherCatV2.02B30,2016-07-27 03:06:00,
2016-07-27 13:11:00,64.1,42.3,30.02,WSW,249,5.0,11.0,45,0.00,,,0.00,WeatherCatV2.02B30,2016-07-27 03:11:00,
2016-07-27 13:16:00,64.1,42.3,30.02,West,277,5.0,11.0,45,0.00,,,0.00,WeatherCatV2.02B30,2016-07-27 03:16:00,
2016-07-27 13:21:00,64.1,41.7,30.02,West,281,6.0,14.0,44,0.00,,,0.00,WeatherCatV2.02B30,2016-07-27 03:21:00,
2016-07-27 13:26:00,64.3,41.9,30.02,WNW,285,7.0,10.0,44,0.00,,,0.00,WeatherCatV2.02B30,2016-07-27 03:26:00,
2016-07-27 13:31:00,64.1,41.7,30.02,NW,304,5.0,12.0,44,0.00,,,0.00,WeatherCatV2.02B30,2016-07-27 03:31:00,
2016-07-27 13:36:00,64.0,42.2,30.02,NW,320,3.0,10.0,45,0.00,,,0.00,WeatherCatV2.02B30,2016-07-27 03:36:00,
2016-07-27 13:41:00,63.8,42.0,30.02,West,277,8.0,8.0,45,0.00,,,0.00,WeatherCatV2.02B30,2016-07-27 03:41:00,
2016-07-27 13:46:00,63.8,42.0,30.02,WNW,289,5.0,11.0,45,0.00,,,0.00,WeatherCatV2.02B30,2016-07-27 03:46:00,
2016-07-27 13:51:00,63.8,42.0,30.01,West,269,6.0,11.0,45,0.00,,,0.00,WeatherCatV2.02B30,2016-07-27 03:51:00,
2016-07-27 13:56:00,63.6,42.4,30.01,WNW,299,5.0,7.0,46,0.00,,,0.00,WeatherCatV2.02B30,2016-07-27 03:56:00,
2016-07-27 14:01:00,63.6,42.4,30.02,WNW,284,7.0,12.0,46,0.00,,,0.00,WeatherCatV2.02B30,2016-07-27 04:01:00,
2016-07-27 14:06:00,63.7,42.5,30.01,North,0,3.0,10.0,46,0.00,,,0.00,WeatherCatV2.02B30,2016-07-27 04:06:00,
2016-07-27 14:11:00,63.7,43.1,30.01,WNW,287,7.0,9.0,47,0.00,,,0.00,WeatherCatV2.02B30,2016-07-27 04:11:00,
2016-07-27 14:16:00,63.8,43.2,30.01,WNW,302,3.0,5.0,47,0.00,,,0.00,WeatherCatV2.02B30,2016-07-27 04:16:00,
2016-07-27 14:21:00,64.0,42.8,30.01,NW,319,4.0,8.0,46,0.00,,,0.00,WeatherCatV2.02B30,2016-07-27 04:21:00,
2016-07-27 14:26:00,64.4,43.7,30.01,NW,308,3.0,4.0,47,0.00,,,0.00,WeatherCatV2.02B30,2016-07-27 04:26:00,
2016-07-27 14:31:00,64.4,42.0,30.01,WNW,292,8.0,10.0,44,0.00,,,0.00,WeatherCatV2.02B30,2016-07-27 04:31:00,
2016-07-27 14:36:00,64.8,43.5,30.01,West,278,6.0,8.0,46,0.00,,,0.00,WeatherCatV2.02B30,2016-07-27 04:36:00,
2016-07-27 14:41:00,65.6,43.7,30.01,West,277,3.0,9.0,45,0.00,,,0.00,WeatherCatV2.02B30,2016-07-27 04:41:00,
2016-07-27 14:46:00,66.1,43.0,30.01,WNW,290,4.0,9.0,43,0.00,,,0.00,WeatherCatV2.02B30,2016-07-27 04:46:00,
2016-07-27 14:51:00,66.0,42.9,30.01,WNW,292,8.0,11.0,43,0.00,,,0.00,WeatherCatV2.02B30,2016-07-27 04:51:00,
2016-07-27 14:56:00,65.5,42.4,30.00,NW,320,4.0,14.0,43,0.00,,,0.00,WeatherCatV2.02B30,2016-07-27 04:56:00,
2016-07-27 15:01:00,65.8,42.7,30.00,WNW,303,8.0,8.0,43,0.00,,,0.00,WeatherCatV2.02B30,2016-07-27 05:01:00,
2016-07-27 15:06:00,65.8,42.7,30.00,WNW,283,2.0,14.0,43,0.00,,,0.00,WeatherCatV2.02B30,2016-07-27 05:06:00,
2016-07-27 15:11:00,65.8,42.7,30.00,WSW,257,5.0,9.0,43,0.00,,,0.00,WeatherCatV2.02B30,2016-07-27 05:11:00,
2016-07-27 15:16:00,66.2,43.0,30.00,West,275,6.0,7.0,43,0.00,,,0.00,WeatherCatV2.02B30,2016-07-27 05:16:00,
2016-07-27 15:21:00,66.4,42.6,30.01,WSW,238,5.0,9.0,42,0.00,,,0.00,WeatherCatV2.02B30,2016-07-27 05:21:00,
2016-07-27 15:31:00,66.1,43.5,30.01,NW,308,6.0,10.0,44,0.00,,,0.00,WeatherCatV2.02B30,2016-07-27 05:31:00,
2016-07-27 15:36:00,65.9,43.4,30.01,WNW,294,7.0,16.0,44,0.00,,,0.00,WeatherCatV2.02B30,2016-07-27 05:36:00,
2016-07-27 15:41:00,65.6,43.1,30.01,WNW,289,3.0,10.0,44,0.00,,,0.00,WeatherCatV2.02B30,2016-07-27 05:41:00,
2016-07-27 15:46:00,65.3,43.4,30.01,SW,230,3.0,10.0,45,0.00,,,0.00,WeatherCatV2.02B30,2016-07-27 05:46:00,
2016-07-27 15:51:00,65.0,43.1,30.01,WNW,288,6.0,11.0,45,0.00,,,0.00,WeatherCatV2.02B30,2016-07-27 05:51:00,
2016-07-27 15:56:00,64.9,43.6,30.01,West,280,16.0,16.0,46,0.00,,,0.00,WeatherCatV2.02B30,2016-07-27 05:56:00,
2016-07-27 16:01:00,64.8,43.5,30.01,WNW,285,7.0,10.0,46,0.00,,,0.00,WeatherCatV2.02B30,2016-07-27 06:01:00,
2016-07-27 16:06:00,64.7,43.4,30.01,West,272,6.0,7.0,46,0.00,,,0.00,WeatherCatV2.02B30,2016-07-27 06:06:00,
2016-07-27 16:11:00,64.7,43.4,30.01,WNW,288,12.0,12.0,46,0.00,,,0.00,WeatherCatV2.02B30,2016-07-27 06:11:00,
2016-07-27 16:16:00,64.6,43.3,30.01,WNW,285,6.0,8.0,46,0.00,,,0.00,WeatherCatV2.02B30,2016-07-27 06:16:00,
2016-07-27 16:21:00,64.6,43.3,30.01,WNW,300,7.0,13.0,46,0.00,,,0.00,WeatherCatV2.02B30,2016-07-27 06:21:00,
2016-07-27 16:26:00,64.5,43.2,30.01,NW,306,7.0,8.0,46,0.00,,,0.00,WeatherCatV2.02B30,2016-07-27 06:26:00,
2016-07-27 16:31:00,64.5,43.2,30.01,WNW,296,10.0,12.0,46,0.00,,,0.00,WeatherCatV2.02B30,2016-07-27 06:31:00,
2016-07-27 16:36:00,64.7,43.4,30.01,NW,308,2.0,10.0,46,0.00,,,0.00,WeatherCatV2.02B30,2016-07-27 06:36:00,
2016-07-27 16:41:00,65.0,43.1,30.02,WNW,294,4.0,11.0,45,0.00,,,0.00,WeatherCatV2.02B30,2016-07-27 06:41:00,
2016-07-27 16:46:00,65.1,43.2,30.02,NW,312,7.0,12.0,45,0.00,,,0.00,WeatherCatV2.02B30,2016-07-27 06:46:00,
2016-07-27 16:51:00,65.1,43.8,30.02,NW,318,2.0,10.0,46,0.00,,,0.00,WeatherCatV2.02B30,2016-07-27 06:51:00,
2016-07-27 16:56:00,65.0,43.7,30.02,NW,318,5.0,7.0,46,0.00,,,0.00,WeatherCatV2.02B30,2016-07-27 06:56:00,
2016-07-27 17:01:00,64.9,43.0,30.02,West,276,4.0,9.0,45,0.00,,,0.00,WeatherCatV2.02B30,2016-07-27 07:01:00,
2016-07-27 17:06:00,64.9,43.6,30.02,West,280,2.0,7.0,46,0.00,,,0.00,WeatherCatV2.02B30,2016-07-27 07:06:00,
2016-07-27 17:11:00,64.6,43.3,30.03,WNW,292,4.0,5.0,46,0.00,,,0.00,WeatherCatV2.02B30,2016-07-27 07:11:00,
2016-07-27 17:16:00,64.3,43.6,30.03,WNW,286,3.0,5.0,47,0.00,,,0.00,WeatherCatV2.02B30,2016-07-27 07:16:00,
2016-07-27 17:21:00,63.9,43.8,30.03,WNW,293,1.0,4.0,48,0.00,,,0.00,WeatherCatV2.02B30,2016-07-27 07:21:00,
2016-07-27 17:26:00,63.7,43.6,30.03,WNW,288,2.0,4.0,48,0.00,,,0.00,WeatherCatV2.02B30,2016-07-27 07:26:00,
2016-07-27 17:31:00,63.5,43.5,30.03,WNW,285,2.0,3.0,48,0.00,,,0.00,WeatherCatV2.02B30,2016-07-27 07:31:00,
2016-07-27 17:36:00,63.4,43.4,30.03,WNW,289,0.0,1.0,48,0.00,,,0.00,WeatherCatV2.02B30,2016-07-27 07:36:00,
2016-07-27 17:41:00,63.2,43.2,30.03,WNW,287,0.0,2.0,48,0.00,,,0.00,WeatherCatV2.02B30,2016-07-27 07:41:00,
2016-07-27 17:46:00,62.9,44.0,30.04,WNW,287,0.0,0.0,50,0.00,,,0.00,WeatherCatV2.02B30,2016-07-27 07:46:00,
2016-07-27 17:51:00,62.2,43.8,30.04,WNW,287,0.0,0.0,51,0.00,,,0.00,WeatherCatV2.02B30,2016-07-27 07:51:00,
2016-07-27 17:56:00,61.7,43.9,30.04,WNW,286,0.0,1.0,52,0.00,,,0.00,WeatherCatV2.02B30,2016-07-27 07:56:00,
2016-07-27 18:01:00,61.4,43.6,30.04,WNW,285,0.0,1.0,52,0.00,,,0.00,WeatherCatV2.02B30,2016-07-27 08:01:00,
2016-07-27 18:06:00,61.1,43.8,30.04,WNW,286,0.0,0.0,53,0.00,,,0.00,WeatherCatV2.02B30,2016-07-27 08:06:00,
2016-07-27 18:11:00,60.6,44.3,30.04,WNW,285,0.0,0.0,55,0.00,,,0.00,WeatherCatV2.02B30,2016-07-27 08:11:00,
2016-07-27 18:16:00,60.3,43.6,30.05,WNW,285,0.0,0.0,54,0.00,,,0.00,WeatherCatV2.02B30,2016-07-27 08:16:00,
2016-07-27 18:21:00,60.3,43.6,30.05,WNW,284,0.0,0.0,54,0.00,,,0.00,WeatherCatV2.02B30,2016-07-27 08:21:00,
2016-07-27 18:26:00,60.3,43.6,30.05,WNW,284,0.0,0.0,54,0.00,,,0.00,WeatherCatV2.02B30,2016-07-27 08:26:00,
2016-07-27 18:31:00,60.6,43.4,30.05,WNW,288,0.0,0.0,53,0.00,,,0.00,WeatherCatV2.02B30,2016-07-27 08:31:00,
2016-07-27 18:36:00,60.8,43.6,30.05,WNW,289,1.0,1.0,53,0.00,,,0.00,WeatherCatV2.02B30,2016-07-27 08:36:00,
2016-07-27 18:41:00,60.8,43.6,30.06,WNW,289,0.0,0.0,53,0.00,,,0.00,WeatherCatV2.02B30,2016-07-27 08:41:00,
2016-07-27 18:46:00,60.7,43.5,30.06,WNW,288,0.0,1.0,53,0.00,,,0.00,WeatherCatV2.02B30,2016-07-27 08:46:00,
2016-07-27 18:51:00,60.9,43.7,30.06,WNW,288,0.0,2.0,53,0.00,,,0.00,WeatherCatV2.02B30,2016-07-27 08:51:00,
2016-07-27 18:56:00,61.1,43.3,30.06,WNW,290,2.0,2.0,52,0.00,,,0.00,WeatherCatV2.02B30,2016-07-27 08:56:00,
2016-07-27 19:01:00,61.2,43.4,30.07,WNW,292,1.0,3.0,52,0.00,,,0.00,WeatherCatV2.02B30,2016-07-27 09:01:00,
2016-07-27 19:06:00,61.1,43.8,30.07,WNW,291,0.0,1.0,53,0.00,,,0.00,WeatherCatV2.02B30,2016-07-27 09:06:00,
2016-07-27 19:11:00,60.8,44.5,30.07,WNW,292,0.0,0.0,55,0.00,,,0.00,WeatherCatV2.02B30,2016-07-27 09:11:00,
2016-07-27 19:12:00,60.7,44.4,30.07,WNW,292,0.0,0.0,55,0.00,,,0.00,WeatherCatV2.02B30,2016-07-27 09:12:00,
2016-07-27 19:17:00,60.0,43.8,30.08,WNW,294,0.0,0.0,55,0.00,,,0.00,WeatherCatV2.02B30,2016-07-27 09:17:00,
2016-07-27 19:22:00,59.3,43.6,30.08,WNW,294,0.0,0.0,56,0.00,,,0.00,WeatherCatV2.02B30,2016-07-27 09:22:00,
2016-07-27 19:27:00,59.0,43.8,30.08,SW,223,0.0,0.0,57,0.00,,,0.00,WeatherCatV2.02B30,2016-07-27 09:27:00,
2016-07-27 19:32:00,58.7,44.0,30.08,SSW,210,0.0,1.0,58,0.00,,,0.00,WeatherCatV2.02B30,2016-07-27 09:32:00,
2016-07-27 19:37:00,58.8,43.6,30.08,SSW,210,0.0,0.0,57,0.00,,,0.00,WeatherCatV2.02B30,2016-07-27 09:37:00,
2016-07-27 19:42:00,59.1,43.4,30.08,WSW,250,0.0,1.0,56,0.00,,,0.00,WeatherCatV2.02B30,2016-07-27 09:42:00,
2016-07-27 19:47:00,59.1,43.4,30.09,WSW,248,0.0,0.0,56,0.00,,,0.00,WeatherCatV2.02B30,2016-07-27 09:47:00,
2016-07-27 19:52:00,59.0,43.8,30.09,WNW,292,0.0,0.0,57,0.00,,,0.00,WeatherCatV2.02B30,2016-07-27 09:52:00,
2016-07-27 19:57:00,59.6,43.4,30.09,WNW,292,0.0,4.0,55,0.00,,,0.00,WeatherCatV2.02B30,2016-07-27 09:57:00,
2016-07-27 20:02:00,59.8,43.6,30.10,WNW,289,0.0,1.0,55,0.00,,,0.00,WeatherCatV2.02B30,2016-07-27 10:02:00,
2016-07-27 20:07:00,60.0,43.8,30.10,West,280,2.0,4.0,55,0.00,,,0.00,WeatherCatV2.02B30,2016-07-27 10:07:00,
2016-07-27 20:12:00,59.7,43.5,30.10,SE,126,0.0,1.0,55,0.00,,,0.00,WeatherCatV2.02B30,2016-07-27 10:12:00,
2016-07-27 20:17:00,59.1,43.9,30.11,SSW,204,1.0,2.0,57,0.00,,,0.00,WeatherCatV2.02B30,2016-07-27 10:17:00,
2016-07-27 20:22:00,59.1,43.4,30.11,NW,304,1.0,3.0,56,0.00,,,0.00,WeatherCatV2.02B30,2016-07-27 10:22:00,
2016-07-27 20:27:00,59.1,43.4,30.11,WNW,285,0.0,2.0,56,0.00,,,0.00,WeatherCatV2.02B30,2016-07-27 10:27:00,
2016-07-27 20:32:00,58.8,43.6,30.11,SSW,209,0.0,1.0,57,0.00,,,0.00,WeatherCatV2.02B30,2016-07-27 10:32:00,
2016-07-27 20:37:00,58.5,43.3,30.11,SW,214,2.0,2.0,57,0.00,,,0.00,WeatherCatV2.02B30,2016-07-27 10:37:00,
2016-07-27 20:42:00,58.4,43.7,30.12,SSW,209,0.0,1.0,58,0.00,,,0.00,WeatherCatV2.02B30,2016-07-27 10:42:00,